Time;durP1;ratioP1;P1;durP2;ratioP2;P2;SDS_P1;SDS_P2;PMS_P1;PMS_P2;Temp;Humidity;BMP_temperature;BMP_pressure;BME280_temperature;BME280_humidity;BME280_pressure;Samples;Min_cycle;Max_cycle;Signal;HPM_P1;HPM_P2
2022/02/24 00:01:59;;;;;;;3.95;1.63;;;3.30;96.40;;;;;;5089163;28;20089;-81
2022/02/24 00:04:25;;;;;;;2.83;1.42;;;3.20;96.50;;;;;;5070188;28;20043;-80
2022/02/24 00:06:51;;;;;;;2.63;1.60;;;3.20;96.70;;;;;;5087688;28;20279;-82
2022/02/24 00:09:17;;;;;;;3.50;2.35;;;3.10;96.90;;;;;;5087666;28;20012;-82
2022/02/24 00:11:43;;;;;;;4.20;1.52;;;3.20;97.20;;;;;;5073390;28;20028;-82
2022/02/24 00:14:08;;;;;;;5.43;2.00;;;3.20;97.40;;;;;;5084982;28;20047;-81
2022/02/24 00:16:34;;;;;;;6.75;2.63;;;3.20;97.40;;;;;;5088822;28;20047;-81
2022/02/24 00:19:00;;;;;;;4.30;2.10;;;3.20;97.50;;;;;;5086728;28;20020;-80
2022/02/24 00:21:26;;;;;;;7.60;2.85;;;3.20;97.50;;;;;;5088069;28;20084;-82
2022/02/24 00:23:52;;;;;;;5.32;2.55;;;3.20;97.40;;;;;;5085264;28;20117;-80
2022/02/24 00:26:17;;;;;;;3.35;2.00;;;3.20;97.40;;;;;;5089820;28;20120;-82
2022/02/24 00:28:43;;;;;;;3.92;1.77;;;3.10;97.40;;;;;;5079389;28;20080;-82
2022/02/24 00:31:09;;;;;;;5.53;1.55;;;3.10;97.60;;;;;;5097006;28;20013;-81
2022/02/24 00:33:41;;;;;;;4.07;1.60;;;3.00;97.80;;;;;;5096744;28;20033;-82
2022/02/24 00:36:07;;;;;;;4.63;1.58;;;3.00;98.00;;;;;;5079516;28;20019;-82
2022/02/24 00:38:34;;;;;;;2.35;1.55;;;2.90;98.10;;;;;;5096541;28;20032;-83
2022/02/24 00:41:00;;;;;;;4.72;1.98;;;2.90;98.20;;;;;;5084896;28;20021;-81
2022/02/24 00:43:26;;;;;;;1.77;1.55;;;2.80;98.30;;;;;;5089430;28;20024;-81
2022/02/24 00:45:51;;;;;;;1.85;1.38;;;2.80;98.60;;;;;;5073125;28;20362;-81
2022/02/24 00:48:17;;;;;;;1.77;1.10;;;2.80;98.80;;;;;;5072938;28;20047;-81
2022/02/24 00:50:44;;;;;;;3.60;1.45;;;2.70;99.00;;;;;;5074058;28;20020;-81
2022/02/24 00:53:10;;;;;;;2.80;1.38;;;2.70;99.10;;;;;;5090384;28;20046;-82
2022/02/24 00:55:36;;;;;;;2.20;1.55;;;2.70;99.30;;;;;;5090541;28;20029;-80
2022/02/24 00:58:02;;;;;;;4.80;1.92;;;2.70;99.50;;;;;;5091300;28;20047;-82
2022/02/24 01:00:28;;;;;;;2.70;1.77;;;2.60;99.60;;;;;;5089678;28;20051;-80
2022/02/24 01:02:53;;;;;;;3.20;1.25;;;2.50;99.80;;;;;;5093854;28;20025;-81
2022/02/24 01:05:19;;;;;;;2.95;1.20;;;2.50;99.90;;;;;;5099539;28;20029;-82
2022/02/24 01:07:45;;;;;;;3.10;1.63;;;2.50;99.90;;;;;;5092650;28;20032;-81
2022/02/24 01:10:11;;;;;;;2.42;1.38;;;2.50;99.90;;;;;;5081552;28;20466;-81
2022/02/24 01:12:36;;;;;;;2.38;1.27;;;2.50;99.90;;;;;;5078344;28;20024;-81
2022/02/24 01:15:06;;;;;;;2.72;1.38;;;2.50;99.90;;;;;;5086924;28;20089;-81
2022/02/24 01:17:36;;;;;;;4.95;1.48;;;2.50;99.90;;;;;;5089431;28;20021;-81
2022/02/24 01:20:06;;;;;;;2.05;1.33;;;2.50;99.90;;;;;;5089542;28;20020;-79
2022/02/24 01:22:32;;;;;;;3.08;1.48;;;2.50;99.90;;;;;;5092769;28;20473;-80
2022/02/24 01:24:58;;;;;;;1.58;1.48;;;2.60;99.90;;;;;;5073858;28;20052;-81
2022/02/24 01:27:24;;;;;;;5.28;1.52;;;2.60;99.90;;;;;;5093514;28;20397;-82
2022/02/24 01:29:49;;;;;;;2.17;1.50;;;2.60;99.90;;;;;;5090995;28;20389;-81
2022/02/24 01:32:16;;;;;;;2.30;1.58;;;2.70;99.90;;;;;;5073584;28;20096;-82
2022/02/24 01:34:41;;;;;;;1.52;1.30;;;2.70;99.90;;;;;;5092399;28;20071;-82
2022/02/24 01:37:07;;;;;;;1.35;0.85;;;2.70;99.90;;;;;;5075193;28;20493;-81
2022/02/24 01:39:33;;;;;;;3.40;1.25;;;2.80;99.90;;;;;;5089258;28;20366;-81
2022/02/24 01:41:59;;;;;;;2.53;1.50;;;2.80;99.90;;;;;;5073640;28;20075;-82
2022/02/24 01:44:25;;;;;;;2.05;1.23;;;2.80;99.90;;;;;;5049200;28;20127;-81
2022/02/24 01:46:51;;;;;;;2.80;1.17;;;2.80;99.90;;;;;;5068922;28;20469;-81
2022/02/24 01:49:20;;;;;;;2.90;1.27;;;2.80;99.90;;;;;;5070015;28;20123;-82
2022/02/24 01:51:47;;;;;;;2.65;1.30;;;2.80;99.90;;;;;;5051424;28;20055;-80
2022/02/24 01:54:13;;;;;;;1.30;1.00;;;2.80;99.90;;;;;;5065877;28;20033;-81
2022/02/24 01:56:38;;;;;;;2.63;1.60;;;2.80;99.90;;;;;;5050674;28;20428;-81
2022/02/24 01:59:04;;;;;;;3.15;1.15;;;2.80;99.90;;;;;;5066548;28;20035;-80
2022/02/24 02:01:31;;;;;;;3.15;1.67;;;2.80;99.90;;;;;;5051198;28;20029;-81
2022/02/24 02:03:56;;;;;;;1.88;1.38;;;2.80;99.90;;;;;;5051404;28;20033;-81
2022/02/24 02:06:22;;;;;;;2.60;1.40;;;2.80;99.90;;;;;;5053291;28;20025;-80
2022/02/24 02:08:49;;;;;;;4.03;1.85;;;2.80;99.90;;;;;;5068295;28;20067;-80
2022/02/24 02:11:15;;;;;;;4.10;1.27;;;2.80;99.90;;;;;;5078504;28;20031;-82
2022/02/24 02:13:41;;;;;;;3.28;1.67;;;2.80;99.90;;;;;;5069461;28;20036;-80
2022/02/24 02:16:10;;;;;;;2.05;1.40;;;2.70;99.90;;;;;;5071723;28;20084;-81
2022/02/24 02:18:38;;;;;;;3.13;1.65;;;2.70;99.90;;;;;;5091078;28;20099;-82
2022/02/24 02:21:04;;;;;;;1.85;1.20;;;2.70;99.90;;;;;;5086810;28;20021;-80
2022/02/24 02:23:30;;;;;;;2.35;1.20;;;2.70;99.90;;;;;;5086727;28;20054;-80
2022/02/24 02:25:56;;;;;;;2.92;1.38;;;2.70;99.90;;;;;;5088486;28;20056;-82
2022/02/24 02:28:22;;;;;;;2.28;1.30;;;2.70;99.90;;;;;;5072502;28;20027;-81
2022/02/24 02:30:47;;;;;;;1.33;1.13;;;2.70;99.90;;;;;;5088976;28;20024;-81
2022/02/24 02:33:19;;;;;;;3.10;1.52;;;2.70;99.90;;;;;;5089643;28;20047;-80
2022/02/24 02:35:44;;;;;;;3.38;1.75;;;2.60;99.90;;;;;;5069112;28;20179;-80
2022/02/24 02:38:10;;;;;;;2.22;1.30;;;2.60;99.90;;;;;;5088617;28;20059;-80
2022/02/24 02:40:38;;;;;;;2.72;1.63;;;2.60;99.90;;;;;;5063829;28;20025;-82
2022/02/24 02:43:08;;;;;;;2.53;1.23;;;2.60;99.90;;;;;;5071253;28;20071;-80
2022/02/24 02:45:35;;;;;;;2.97;1.10;;;2.60;99.90;;;;;;5088820;28;20031;-80
2022/02/24 02:48:01;;;;;;;3.42;1.65;;;2.60;99.90;;;;;;5087501;28;20210;-81
2022/02/24 02:50:30;;;;;;;2.70;1.30;;;2.60;99.90;;;;;;5087704;28;20013;-82
2022/02/24 02:53:00;;;;;;;5.32;1.90;;;2.60;99.90;;;;;;5086654;28;20016;-80
2022/02/24 02:55:26;;;;;;;2.92;1.77;;;2.60;99.90;;;;;;5070655;28;20024;-80
2022/02/24 02:57:51;;;;;;;2.42;1.50;;;2.60;99.90;;;;;;5088470;28;20532;-80
2022/02/24 03:00:17;;;;;;;1.48;1.25;;;2.60;99.90;;;;;;5087428;28;20029;-81
2022/02/24 03:02:43;;;;;;;3.15;1.27;;;2.60;99.90;;;;;;5070582;28;20390;-82
2022/02/24 03:05:09;;;;;;;2.90;1.23;;;2.50;99.90;;;;;;5089337;28;20016;-82
2022/02/24 03:07:35;;;;;;;2.28;1.60;;;2.50;99.90;;;;;;5087062;28;20028;-81
2022/02/24 03:10:03;;;;;;;2.25;1.30;;;2.50;99.90;;;;;;5065725;28;20032;-82
2022/02/24 03:12:29;;;;;;;3.35;1.35;;;2.60;99.90;;;;;;5078596;28;20025;-81
2022/02/24 03:14:54;;;;;;;1.83;1.33;;;2.50;99.90;;;;;;5091921;28;20055;-81
2022/02/24 03:17:22;;;;;;;3.10;1.02;;;2.50;99.90;;;;;;5090864;28;20055;-81
2022/02/24 03:19:48;;;;;;;2.00;1.00;;;2.50;99.90;;;;;;5092047;28;20020;-80
2022/02/24 03:22:14;;;;;;;3.05;1.10;;;2.50;99.90;;;;;;5089571;28;20032;-81
2022/02/24 03:24:39;;;;;;;1.00;0.90;;;2.60;99.90;;;;;;5086157;28;20028;-81
2022/02/24 03:27:06;;;;;;;1.23;1.05;;;2.60;99.90;;;;;;5088233;28;20036;-81
2022/02/24 03:29:32;;;;;;;1.65;1.05;;;2.60;99.90;;;;;;5070557;28;20028;-81
2022/02/24 03:32:00;;;;;;;1.95;0.88;;;2.60;99.90;;;;;;5085941;28;20111;-81
2022/02/24 03:34:25;;;;;;;2.70;0.98;;;2.70;99.90;;;;;;5087084;28;20028;-81
2022/02/24 03:36:51;;;;;;;1.42;1.17;;;2.70;99.90;;;;;;5085857;28;20072;-81
2022/02/24 03:39:17;;;;;;;1.08;0.95;;;2.70;99.90;;;;;;5091455;28;20051;-80
2022/02/24 03:41:43;;;;;;;3.40;1.20;;;2.70;99.90;;;;;;5057030;28;20051;-80
2022/02/24 03:44:08;;;;;;;1.67;1.20;;;2.70;99.90;;;;;;5080961;28;20033;-79
2022/02/24 03:46:34;;;;;;;1.35;0.80;;;2.80;99.90;;;;;;5084061;28;20076;-81
2022/02/24 03:49:00;;;;;;;1.25;0.77;;;2.70;99.90;;;;;;5088156;28;20025;-81
2022/02/24 03:51:26;;;;;;;1.38;0.70;;;2.80;99.90;;;;;;5088877;28;20005;-82
2022/02/24 03:53:51;;;;;;;1.27;1.10;;;2.80;99.90;;;;;;5089222;28;20021;-81
2022/02/24 03:56:17;;;;;;;2.95;1.20;;;2.70;99.90;;;;;;5087939;28;20032;-81
2022/02/24 03:58:45;;;;;;;1.23;0.80;;;2.80;99.90;;;;;;5087097;28;20384;-80
2022/02/24 04:01:11;;;;;;;1.52;1.15;;;2.80;99.90;;;;;;5070911;28;20036;-81
2022/02/24 04:03:37;;;;;;;0.80;0.80;;;2.80;99.90;;;;;;5069963;28;20021;-81
2022/02/24 04:06:03;;;;;;;1.85;1.10;;;2.80;99.90;;;;;;5080038;22;20048;-82
2022/02/24 04:08:28;;;;;;;1.08;0.98;;;2.80;99.90;;;;;;5057698;28;20021;-82
2022/02/24 04:10:55;;;;;;;0.80;0.80;;;2.70;99.90;;;;;;5056367;28;20021;-85
2022/02/24 04:13:21;;;;;;;0.80;0.70;;;2.70;99.90;;;;;;5055568;28;20044;-85
2022/02/24 04:15:47;;;;;;;1.08;0.77;;;2.80;99.90;;;;;;5056280;28;20102;-85
2022/02/24 04:18:13;;;;;;;2.78;0.85;;;2.80;99.90;;;;;;5056241;28;20556;-85
2022/02/24 04:20:39;;;;;;;1.50;1.10;;;2.80;99.90;;;;;;5060589;28;20197;-84
2022/02/24 04:23:05;;;;;;;2.17;1.00;;;2.70;99.90;;;;;;5064527;28;20084;-82
2022/02/24 04:25:31;;;;;;;2.25;1.00;;;2.70;99.90;;;;;;5066018;28;20432;-84
2022/02/24 04:27:56;;;;;;;1.92;0.98;;;2.70;99.90;;;;;;5067494;28;20535;-85
2022/02/24 04:30:22;;;;;;;1.10;1.00;;;2.70;99.90;;;;;;5065854;28;20029;-83
2022/02/24 04:32:48;;;;;;;1.67;1.20;;;2.70;99.90;;;;;;5072236;28;20037;-81
2022/02/24 04:35:15;;;;;;;1.33;1.20;;;2.70;99.90;;;;;;5068927;28;20078;-82
2022/02/24 04:37:40;;;;;;;0.82;0.80;;;2.70;99.90;;;;;;5050625;28;20063;-83
2022/02/24 04:40:08;;;;;;;1.98;1.08;;;2.70;99.90;;;;;;5059029;28;20097;-84
2022/02/24 04:42:34;;;;;;;1.33;1.10;;;2.70;99.90;;;;;;5061031;28;20029;-84
2022/02/24 04:45:00;;;;;;;1.70;1.17;;;2.70;99.90;;;;;;5060619;28;20036;-83
2022/02/24 04:47:27;;;;;;;1.50;1.10;;;2.70;99.90;;;;;;5063104;28;20025;-82
2022/02/24 04:49:53;;;;;;;1.42;1.08;;;2.70;99.90;;;;;;5058324;28;20077;-85
2022/02/24 04:52:19;;;;;;;1.60;0.90;;;2.80;99.90;;;;;;5047891;28;20025;-82
2022/02/24 04:54:46;;;;;;;3.63;1.40;;;2.80;99.90;;;;;;5041159;28;20021;-83
2022/02/24 04:57:12;;;;;;;2.00;0.88;;;2.80;99.90;;;;;;5044814;28;20025;-84
2022/02/24 04:59:37;;;;;;;0.88;0.70;;;2.80;99.90;;;;;;5039915;28;20091;-84
2022/02/24 05:02:03;;;;;;;1.00;0.88;;;2.80;99.90;;;;;;5045839;28;20059;-83
2022/02/24 05:04:29;;;;;;;1.33;1.00;;;2.80;99.90;;;;;;5053767;28;20037;-80
2022/02/24 05:06:57;;;;;;;2.03;1.17;;;2.80;99.90;;;;;;5063839;28;20028;-80
2022/02/24 05:09:24;;;;;;;2.00;0.90;;;2.80;99.90;;;;;;5076129;28;20096;-80
2022/02/24 05:11:49;;;;;;;1.83;0.95;;;2.80;99.90;;;;;;5077704;28;20014;-82
2022/02/24 05:14:15;;;;;;;1.00;0.90;;;2.70;99.90;;;;;;5077098;28;20032;-79
2022/02/24 05:16:41;;;;;;;1.20;1.10;;;2.80;99.90;;;;;;5071599;28;20055;-82
2022/02/24 05:19:07;;;;;;;2.35;1.10;;;2.70;99.90;;;;;;5059031;28;20558;-85
2022/02/24 05:21:32;;;;;;;0.85;0.85;;;2.70;99.90;;;;;;5060076;28;20033;-84
2022/02/24 05:23:58;;;;;;;0.77;0.77;;;2.70;99.90;;;;;;5060353;28;20096;-85
2022/02/24 05:26:24;;;;;;;1.92;0.70;;;2.70;99.90;;;;;;5058114;28;20021;-85
2022/02/24 05:28:49;;;;;;;0.80;0.80;;;2.70;99.90;;;;;;5059501;28;20025;-85
2022/02/24 05:31:15;;;;;;;1.50;0.98;;;2.70;99.90;;;;;;5057021;28;20108;-84
2022/02/24 05:33:41;;;;;;;1.38;0.68;;;2.70;99.90;;;;;;5060344;28;20036;-85
2022/02/24 05:36:07;;;;;;;1.35;1.00;;;2.70;99.90;;;;;;5053001;28;20057;-85
2022/02/24 05:38:32;;;;;;;1.25;1.02;;;2.80;99.90;;;;;;5058057;28;20029;-86
2022/02/24 05:40:58;;;;;;;2.22;0.93;;;2.80;99.90;;;;;;5059903;28;20029;-85
2022/02/24 05:43:25;;;;;;;1.30;1.08;;;2.70;99.90;;;;;;5058445;28;20025;-84
2022/02/24 05:45:51;;;;;;;1.38;1.00;;;2.80;99.90;;;;;;5058178;28;20075;-85
2022/02/24 05:48:16;;;;;;;1.98;1.50;;;2.80;99.90;;;;;;5058444;28;20020;-84
2022/02/24 05:50:42;;;;;;;0.77;0.70;;;2.80;99.90;;;;;;5058310;28;20028;-84
2022/02/24 05:53:08;;;;;;;0.82;0.77;;;2.80;99.90;;;;;;5059782;28;20117;-82
2022/02/24 05:55:35;;;;;;;1.88;1.00;;;2.80;99.90;;;;;;5068147;28;20484;-84
2022/02/24 05:58:01;;;;;;;1.55;1.08;;;2.80;99.90;;;;;;5058749;28;20107;-83
2022/02/24 06:00:28;;;;;;;1.08;0.85;;;2.90;99.90;;;;;;5060259;28;20040;-87
2022/02/24 06:02:53;;;;;;;1.33;0.90;;;2.90;99.90;;;;;;5058784;28;20021;-84
2022/02/24 06:05:20;;;;;;;2.85;1.30;;;3.00;99.90;;;;;;5058892;28;20072;-85
2022/02/24 06:07:46;;;;;;;3.58;0.98;;;3.00;99.90;;;;;;5050857;28;20028;-85
2022/02/24 06:10:12;;;;;;;1.45;0.98;;;3.00;99.90;;;;;;5060768;28;20021;-84
2022/02/24 06:12:38;;;;;;;1.88;1.23;;;3.00;99.90;;;;;;5060115;28;20040;-83
2022/02/24 06:15:06;;;;;;;2.45;1.20;;;3.00;99.90;;;;;;5072448;28;20028;-80
2022/02/24 06:17:32;;;;;;;4.15;1.65;;;3.00;99.90;;;;;;5076924;28;20009;-81
2022/02/24 06:19:57;;;;;;;3.05;1.10;;;3.10;99.90;;;;;;5058757;28;20037;-85
2022/02/24 06:22:24;;;;;;;1.05;0.90;;;3.10;99.90;;;;;;5060664;28;20129;-83
2022/02/24 06:24:51;;;;;;;1.33;0.93;;;3.10;99.90;;;;;;5071897;28;20033;-84
2022/02/24 06:27:20;;;;;;;1.58;0.98;;;3.10;99.90;;;;;;5074074;28;20017;-82
2022/02/24 06:29:47;;;;;;;0.75;0.75;;;3.20;99.90;;;;;;5073303;28;20043;-82
2022/02/24 06:32:13;;;;;;;3.50;0.93;;;3.20;99.90;;;;;;5073412;28;20047;-83
2022/02/24 06:34:43;;;;;;;2.38;1.20;;;3.30;99.90;;;;;;5063830;28;20104;-82
2022/02/24 06:37:10;;;;;;;2.03;1.42;;;3.30;99.90;;;;;;5055596;28;20036;-83
2022/02/24 06:39:36;;;;;;;1.33;1.00;;;3.40;99.90;;;;;;5056169;28;20024;-84
2022/02/24 06:42:02;;;;;;;2.28;1.25;;;3.40;99.90;;;;;;5045975;28;20034;-83
2022/02/24 06:44:29;;;;;;;1.92;1.17;;;3.50;99.90;;;;;;5041749;28;20017;-83
2022/02/24 06:46:55;;;;;;;4.85;1.00;;;3.50;99.90;;;;;;5041000;28;20021;-82
2022/02/24 06:49:21;;;;;;;2.17;1.08;;;3.60;99.90;;;;;;5037971;28;20083;-84
2022/02/24 06:51:47;;;;;;;2.28;1.08;;;3.70;99.90;;;;;;5038390;28;20041;-84
2022/02/24 06:54:13;;;;;;;2.92;1.00;;;3.70;99.90;;;;;;5038222;28;20025;-83
2022/02/24 06:56:38;;;;;;;1.83;1.30;;;3.80;99.90;;;;;;5058032;28;20414;-84
2022/02/24 06:59:05;;;;;;;1.08;0.95;;;3.80;99.90;;;;;;5066808;28;20024;-84
2022/02/24 07:01:32;;;;;;;2.42;1.38;;;3.90;99.90;;;;;;5059601;28;20090;-84
2022/02/24 07:03:57;;;;;;;2.72;1.10;;;4.00;99.60;;;;;;5061093;28;20031;-82
2022/02/24 07:06:23;;;;;;;2.63;0.73;;;4.10;99.40;;;;;;5050023;28;20056;-83
2022/02/24 07:08:49;;;;;;;3.58;1.50;;;4.20;99.30;;;;;;5057119;28;20389;-84
2022/02/24 07:11:15;;;;;;;4.43;1.75;;;4.20;99.00;;;;;;5057292;28;20112;-84
2022/02/24 07:13:40;;;;;;;3.88;1.33;;;4.40;98.60;;;;;;5058493;28;20051;-82
2022/02/24 07:16:06;;;;;;;5.15;0.90;;;4.50;98.40;;;;;;5057416;28;20031;-82
2022/02/24 07:18:32;;;;;;;2.22;0.98;;;4.50;98.20;;;;;;5059670;28;20052;-83
2022/02/24 07:20:57;;;;;;;3.47;1.15;;;4.70;97.90;;;;;;5063215;28;20029;-82
2022/02/24 07:23:26;;;;;;;1.40;1.20;;;4.80;97.50;;;;;;5071347;28;20017;-84
2022/02/24 07:25:56;;;;;;;3.95;1.35;;;4.90;97.40;;;;;;5067548;28;20021;-84
2022/02/24 07:28:22;;;;;;;3.10;1.20;;;5.00;96.90;;;;;;5060012;28;20083;-84
2022/02/24 07:30:48;;;;;;;3.08;1.38;;;5.10;96.50;;;;;;5067074;28;20021;-82
2022/02/24 07:33:15;;;;;;;1.60;1.30;;;5.20;96.20;;;;;;5073595;28;20039;-83
2022/02/24 07:35:41;;;;;;;2.13;1.13;;;5.30;96.00;;;;;;5057893;28;20509;-83
2022/02/24 07:38:07;;;;;;;2.60;0.82;;;5.50;95.90;;;;;;5058781;28;20029;-86
2022/02/24 07:40:33;;;;;;;2.35;1.10;;;5.60;95.60;;;;;;5052035;28;20049;-85
2022/02/24 07:42:59;;;;;;;2.05;1.27;;;5.80;95.00;;;;;;5036587;28;20026;-84
2022/02/24 07:45:25;;;;;;;3.10;1.67;;;5.90;94.30;;;;;;5037717;28;20052;-85
2022/02/24 07:47:51;;;;;;;1.63;0.95;;;6.10;93.90;;;;;;5035645;28;20029;-84
2022/02/24 07:50:17;;;;;;;4.50;1.00;;;6.30;93.60;;;;;;5052312;28;20039;-83
2022/02/24 07:52:46;;;;;;;3.22;1.65;;;6.30;93.00;;;;;;5056409;28;20032;-85
2022/02/24 07:55:13;;;;;;;3.20;1.58;;;6.50;92.60;;;;;;5059034;28;20037;-85
2022/02/24 07:57:40;;;;;;;2.55;1.50;;;6.60;92.30;;;;;;5061573;28;20022;-83
2022/02/24 08:00:08;;;;;;;1.73;1.23;;;6.80;92.10;;;;;;5042691;28;20060;-83
2022/02/24 08:02:35;;;;;;;1.00;0.90;;;7.00;91.90;;;;;;5055178;28;20029;-82
2022/02/24 08:05:01;;;;;;;3.88;1.25;;;7.10;91.40;;;;;;5063099;28;20025;-82
2022/02/24 08:07:26;;;;;;;4.65;1.42;;;7.30;90.80;;;;;;5046211;28;20035;-82
2022/02/24 08:09:52;;;;;;;3.13;1.30;;;7.40;90.00;;;;;;5051994;28;20025;-82
2022/02/24 08:15:02;;;;;;;2.00;1.23;;;7.60;87.50;;;;;;5040972;28;20040;-84
2022/02/24 08:17:28;;;;;;;2.88;1.30;;;7.80;86.50;;;;;;5042088;28;20437;-81
2022/02/24 08:19:54;;;;;;;5.18;1.20;;;7.80;85.50;;;;;;5051067;28;20017;-83
2022/02/24 08:22:20;;;;;;;2.38;1.35;;;7.80;84.10;;;;;;5059657;28;20430;-82
2022/02/24 08:24:46;;;;;;;1.52;1.08;;;7.90;83.90;;;;;;5062172;28;20032;-79
2022/02/24 08:27:12;;;;;;;1.63;1.02;;;8.00;83.40;;;;;;5062639;28;20021;-83
2022/02/24 08:29:38;;;;;;;0.95;0.60;;;8.20;82.80;;;;;;5058879;28;20044;-83
2022/02/24 08:32:04;;;;;;;0.77;0.70;;;8.30;82.00;;;;;;5045622;28;20101;-84
2022/02/24 08:34:29;;;;;;;2.75;0.98;;;8.40;81.30;;;;;;5045383;28;20563;-85
2022/02/24 08:36:55;;;;;;;1.75;1.00;;;8.50;80.20;;;;;;5043037;28;20025;-82
2022/02/24 08:39:23;;;;;;;1.38;0.80;;;8.70;79.30;;;;;;5055857;28;20030;-84
2022/02/24 08:41:49;;;;;;;3.20;1.10;;;8.80;78.20;;;;;;5042954;28;20535;-84
2022/02/24 08:44:16;;;;;;;1.33;0.93;;;9.00;76.90;;;;;;5043873;28;20092;-84
2022/02/24 08:46:42;;;;;;;3.97;0.93;;;9.20;76.20;;;;;;5056003;28;20048;-85
2022/02/24 08:49:08;;;;;;;2.92;0.70;;;9.40;75.30;;;;;;5046434;28;20051;-86
2022/02/24 08:51:34;;;;;;;4.35;1.08;;;9.60;74.00;;;;;;5047067;28;20393;-85
2022/02/24 08:54:00;;;;;;;2.00;1.15;;;9.70;72.60;;;;;;5045685;28;20029;-85
2022/02/24 08:56:26;;;;;;;1.80;1.10;;;9.80;71.70;;;;;;5046926;28;20570;-84
2022/02/24 08:58:51;;;;;;;1.73;0.90;;;10.00;71.10;;;;;;5049303;28;20009;-86
2022/02/24 09:01:17;;;;;;;1.33;0.80;;;10.30;70.50;;;;;;5054266;28;20104;-83
2022/02/24 09:03:43;;;;;;;1.40;0.90;;;10.50;69.70;;;;;;5054771;28;20056;-83
2022/02/24 09:06:09;;;;;;;2.28;0.70;;;10.80;68.10;;;;;;5055515;28;20018;-85
2022/02/24 09:08:35;;;;;;;0.88;0.77;;;11.00;67.20;;;;;;5066037;28;20022;-84
2022/02/24 09:11:01;;;;;;;1.35;0.77;;;11.30;66.50;;;;;;5056544;28;20049;-85
2022/02/24 09:13:26;;;;;;;1.00;0.70;;;11.50;65.30;;;;;;5057366;28;20033;-85
2022/02/24 09:15:52;;;;;;;3.83;1.00;;;11.50;64.30;;;;;;5046571;28;20029;-85
2022/02/24 09:18:18;;;;;;;3.83;1.25;;;11.60;63.30;;;;;;5039346;28;20017;-84
2022/02/24 09:20:44;;;;;;;1.63;0.80;;;11.70;63.30;;;;;;5041496;28;20113;-84
2022/02/24 09:23:22;;;;;;;1.90;1.10;;;11.90;62.70;;;;;;5041876;28;20230;-86
2022/02/24 09:25:48;;;;;;;2.58;1.30;;;12.20;61.20;;;;;;5040586;28;20030;-83
2022/02/24 09:28:16;;;;;;;3.47;1.58;;;12.30;59.90;;;;;;5041280;28;20063;-85
2022/02/24 09:30:42;;;;;;;2.03;1.63;;;12.50;59.20;;;;;;5039813;28;20037;-85
2022/02/24 09:33:09;;;;;;;1.75;1.23;;;12.60;58.40;;;;;;5043068;28;20386;-85
2022/02/24 09:35:38;;;;;;;2.35;1.13;;;12.80;57.80;;;;;;5040381;28;20025;-84
2022/02/24 09:38:04;;;;;;;5.43;1.27;;;13.00;56.70;;;;;;5048144;28;20033;-86
2022/02/24 09:40:34;;;;;;;2.72;1.55;;;13.10;55.90;;;;;;5051729;28;20025;-86
2022/02/24 09:43:05;;;;;;;3.33;1.10;;;13.10;55.70;;;;;;5039484;28;20029;-85
2022/02/24 09:45:30;;;;;;;3.58;1.45;;;13.10;55.30;;;;;;5039168;28;20397;-85
2022/02/24 09:48:00;;;;;;;1.60;1.02;;;13.10;54.80;;;;;;5039909;28;20026;-85
2022/02/24 09:50:27;;;;;;;1.45;1.00;;;13.10;54.70;;;;;;5040634;28;20029;-84
2022/02/24 09:52:52;;;;;;;1.70;1.00;;;13.10;54.80;;;;;;5039757;28;20041;-84
2022/02/24 09:55:18;;;;;;;1.23;0.90;;;13.20;54.60;;;;;;5041313;28;20026;-83
2022/02/24 09:57:44;;;;;;;2.92;0.75;;;13.30;54.10;;;;;;5042094;28;20056;-86
2022/02/24 10:00:10;;;;;;;1.20;0.77;;;13.40;53.70;;;;;;5039530;28;20753;-84
2022/02/24 10:02:36;;;;;;;2.53;0.82;;;13.70;53.30;;;;;;5040843;28;20363;-85
2022/02/24 10:05:03;;;;;;;1.33;0.80;;;13.90;52.50;;;;;;5038284;28;20159;-85
2022/02/24 10:07:29;;;;;;;1.35;0.60;;;14.20;51.70;;;;;;5050225;28;20032;-85
2022/02/24 10:09:55;;;;;;;1.98;0.60;;;14.30;51.30;;;;;;5061365;28;20052;-83
2022/02/24 10:12:20;;;;;;;0.60;0.60;;;14.60;50.80;;;;;;5051734;28;20101;-81
2022/02/24 10:14:47;;;;;;;0.93;0.88;;;14.60;50.30;;;;;;5048646;28;20037;-84
2022/02/24 10:17:15;;;;;;;2.08;0.70;;;14.60;50.10;;;;;;5056664;28;20044;-84
2022/02/24 10:19:46;;;;;;;1.27;0.80;;;14.70;49.90;;;;;;5056228;28;20036;-84
2022/02/24 10:22:19;;;;;;;2.10;1.17;;;14.80;49.00;;;;;;5056233;28;20025;-84
2022/02/24 10:24:53;;;;;;;;;;;14.90;49.10;;;;;;5045044;28;20025;-82
2022/02/24 10:27:22;;;;;;;1.20;0.70;;;15.00;48.70;;;;;;5037033;28;19920;-84
2022/02/24 10:30:14;;;;;;;3.38;1.25;;;15.00;48.50;;;;;;5038391;28;20021;-84
2022/02/24 10:32:49;;;;;;;1.98;0.60;;;15.00;48.20;;;;;;5039089;28;20036;-83
2022/02/24 10:35:18;;;;;;;2.08;0.80;;;14.90;48.10;;;;;;5045370;28;20021;-83
2022/02/24 10:37:50;;;;;;;2.55;0.80;;;14.90;48.20;;;;;;5057681;28;20080;-82
2022/02/24 10:40:19;;;;;;;1.40;0.67;;;15.00;48.10;;;;;;5053409;28;20030;-84
2022/02/24 10:42:45;;;;;;;3.05;0.80;;;14.90;49.10;;;;;;5039528;28;20032;-83
2022/02/24 10:45:16;;;;;;;4.85;0.75;;;14.80;48.40;;;;;;5041987;28;20025;-81
2022/02/24 10:48:03;;;;;;;0.70;0.70;;;14.60;48.70;;;;;;5041820;28;20025;-83
2022/02/24 10:50:47;;;;;;;1.58;0.93;;;14.40;49.60;;;;;;5043404;28;20030;-83
2022/02/24 10:53:26;;;;;;;2.08;0.77;;;14.40;50.00;;;;;;5051129;28;20037;-84
2022/02/24 10:55:59;;;;;;;3.30;1.00;;;14.40;50.40;;;;;;5046861;28;20041;-83
2022/02/24 10:58:26;;;;;;;1.10;0.60;;;14.50;50.50;;;;;;5043203;28;20026;-83
2022/02/24 11:01:04;;;;;;;2.25;1.00;;;14.60;50.00;;;;;;5034155;28;20073;-84
2022/02/24 11:03:30;;;;;;;1.60;1.10;;;14.60;50.00;;;;;;5050349;28;20112;-83
2022/02/24 11:06:01;;;;;;;2.08;1.20;;;14.70;50.30;;;;;;5037248;28;20034;-82
2022/02/24 11:08:29;;;;;;;1.45;1.25;;;14.70;50.30;;;;;;5053627;28;20034;-83
2022/02/24 11:10:56;;;;;;;6.90;1.00;;;14.80;50.50;;;;;;5061311;28;20029;-83
2022/02/24 11:13:23;;;;;;;2.30;1.00;;;14.80;50.30;;;;;;5048102;28;20353;-83
2022/02/24 11:15:52;;;;;;;3.15;1.42;;;14.90;50.50;;;;;;5040300;28;20017;-83
2022/02/24 11:18:18;;;;;;;1.35;0.90;;;15.00;50.60;;;;;;5039344;28;20053;-83
2022/02/24 11:20:44;;;;;;;2.63;1.15;;;15.10;50.60;;;;;;5037596;28;20040;-83
2022/02/24 11:23:13;;;;;;;2.65;1.10;;;15.20;50.50;;;;;;5039212;28;20029;-82
2022/02/24 11:26:05;;;;;;;2.45;1.23;;;15.30;50.00;;;;;;5038935;28;20022;-82
2022/02/24 11:28:47;;;;;;;;;;;15.20;49.70;;;;;;5032728;28;20029;-82
2022/02/24 11:31:24;;;;;;;3.25;1.23;;;15.20;49.90;;;;;;5038468;28;19909;-82
2022/02/24 11:33:54;;;;;;;3.85;1.25;;;15.20;49.90;;;;;;5040309;28;20112;-82
2022/02/24 11:36:21;;;;;;;3.72;0.98;;;15.00;49.80;;;;;;5029516;28;20030;-83
2022/02/24 11:39:17;;;;;;;2.88;1.10;;;15.00;49.90;;;;;;5047769;28;20050;-85
2022/02/24 11:41:49;;;;;;;1.48;1.02;;;14.90;50.10;;;;;;5031586;28;20447;-84
2022/02/24 11:44:36;;;;;;;2.55;1.17;;;15.00;49.30;;;;;;5038926;28;20021;-83
2022/02/24 11:47:06;;;;;;;2.42;1.10;;;15.10;49.20;;;;;;5038974;28;20037;-82
2022/02/24 11:49:53;;;;;;;2.67;1.20;;;15.20;49.00;;;;;;5043023;28;20025;-82
2022/02/24 11:52:24;;;;;;;2.90;1.05;;;15.10;48.90;;;;;;5044803;28;20076;-82
2022/02/24 11:54:51;;;;;;;1.13;0.95;;;15.10;48.50;;;;;;5041572;28;20021;-82
2022/02/24 11:57:36;;;;;;;4.30;1.23;;;15.10;48.80;;;;;;5040678;28;20040;-82
2022/02/24 12:00:15;;;;;;;2.95;0.90;;;15.00;48.50;;;;;;5038645;28;20034;-82
2022/02/24 12:02:46;;;;;;;2.65;1.02;;;15.10;47.90;;;;;;5039171;28;20196;-84
2022/02/24 12:05:19;;;;;;;1.85;0.90;;;15.20;48.10;;;;;;5037045;28;20469;-82
2022/02/24 12:08:05;;;;;;;3.45;0.90;;;15.30;47.60;;;;;;5051784;28;20037;-83
2022/02/24 12:10:41;;;;;;;2.72;0.75;;;15.40;46.40;;;;;;5055369;28;20048;-82
2022/02/24 12:13:25;;;;;;;1.98;1.23;;;15.40;46.50;;;;;;5053923;28;20014;-82
2022/02/24 12:16:23;;;;;;;1.15;0.80;;;15.40;46.50;;;;;;5039156;28;20022;-83
2022/02/24 12:18:50;;;;;;;1.23;0.70;;;15.60;46.70;;;;;;5027417;28;20493;-83
2022/02/24 12:21:37;;;;;;;4.72;1.08;;;15.70;46.50;;;;;;5037343;28;20034;-83
2022/02/24 12:24:18;;;;;;;2.20;1.25;;;15.80;46.10;;;;;;5019387;28;20058;-81
2022/02/24 12:26:50;;;;;;;3.28;1.50;;;15.90;45.70;;;;;;5023373;28;20021;-82
2022/02/24 12:29:29;;;;;;;3.45;0.85;;;16.00;45.50;;;;;;5038453;28;20025;-82
2022/02/24 12:32:03;;;;;;;3.17;1.40;;;16.10;45.10;;;;;;5050884;28;20010;-81
2022/02/24 12:34:30;;;;;;;1.10;0.75;;;16.20;44.70;;;;;;5028093;28;20032;-82
2022/02/24 12:37:26;;;;;;;1.23;0.93;;;16.40;43.10;;;;;;5041236;28;20067;-82
2022/02/24 12:39:52;;;;;;;3.40;0.95;;;16.40;42.00;;;;;;5031467;28;20117;-83
2022/02/24 12:42:21;;;;;;;1.02;0.93;;;16.30;41.90;;;;;;5025777;28;20042;-83
2022/02/24 12:44:46;;;;;;;3.00;0.90;;;16.20;42.70;;;;;;5040466;28;20075;-84
2022/02/24 12:47:12;;;;;;;2.58;1.30;;;16.10;43.00;;;;;;5042621;28;20086;-84
2022/02/24 12:49:47;;;;;;;1.85;1.00;;;16.10;42.80;;;;;;5040577;28;20160;-84
2022/02/24 12:52:17;;;;;;;1.58;0.80;;;15.90;43.10;;;;;;5043149;28;20363;-82
2022/02/24 12:54:44;;;;;;;2.78;0.80;;;15.80;43.80;;;;;;5043404;28;20025;-83
2022/02/24 12:57:09;;;;;;;1.52;0.90;;;15.80;43.90;;;;;;5044879;28;20053;-81
2022/02/24 12:59:36;;;;;;;2.88;0.90;;;15.80;44.20;;;;;;5044549;28;20036;-81
2022/02/24 13:02:02;;;;;;;2.22;0.80;;;15.70;44.40;;;;;;5043305;28;20128;-81